新加坡混合席位

Singapore Metar:
2017/10/17 23:30 WSSS 172330Z VRB02KT 9999 FEW020 BKN300 28/26 Q1009 NOSIG

站台狀態: